createdAt,value
2023-09-22T00:04:48.379Z,99742.13
2023-09-22T00:09:49.951Z,99739.97
2023-09-22T00:14:51.523Z,99754.91
2023-09-22T00:19:53.231Z,99768.41
2023-09-22T00:24:54.747Z,99761.81
2023-09-22T00:29:56.293Z,99768.13
2023-09-22T00:34:57.977Z,99776.47
2023-09-22T00:39:59.667Z,99770.31
2023-09-22T00:45:01.192Z,99778.94
2023-09-22T00:50:03.541Z,99774.41
2023-09-22T00:55:05.688Z,99767.06
2023-09-22T01:00:07.963Z,99772.19
2023-09-22T01:05:09.782Z,99759.75
2023-09-22T01:10:11.879Z,99764.16
2023-09-22T01:15:13.480Z,99783.63
2023-09-22T01:20:14.953Z,99795.16
2023-09-22T01:25:16.544Z,99794.63
2023-09-22T01:30:18.222Z,99800.69
2023-09-22T01:35:19.723Z,99799.31
2023-09-22T01:40:21.198Z,99817.41
2023-09-22T01:45:22.760Z,99818.38
2023-09-22T01:50:24.299Z,99817.44
2023-09-22T01:55:25.744Z,99823.72
2023-09-22T02:00:27.504Z,99834.00
2023-09-22T02:05:29.195Z,99841.00
2023-09-22T02:10:30.727Z,99838.97
2023-09-22T02:15:32.238Z,99834.28
2023-09-22T02:20:35.015Z,99847.72
2023-09-22T02:25:36.464Z,99847.31
2023-09-22T02:30:37.968Z,99860.06
2023-09-22T02:35:41.690Z,99864.75
2023-09-22T02:40:45.222Z,99862.25
2023-09-22T02:45:46.858Z,99875.09
2023-09-22T02:50:48.962Z,99882.72
2023-09-22T02:55:50.571Z,99876.16
2023-09-22T03:00:52.160Z,99885.47
2023-09-22T03:05:59.920Z,99893.09
2023-09-22T03:11:02.796Z,99895.41
2023-09-22T03:16:04.989Z,99908.81
2023-09-22T03:21:06.664Z,99905.91
2023-09-22T03:26:08.129Z,99897.72
2023-09-22T03:31:09.730Z,99887.41
2023-09-22T03:36:11.442Z,99881.28
2023-09-22T03:41:12.972Z,99872.13
2023-09-22T03:46:14.477Z,99891.56
2023-09-22T03:51:17.378Z,99887.88
2023-09-22T03:56:18.891Z,99891.03
2023-09-22T04:01:20.436Z,99893.19
2023-09-22T04:06:22.534Z,99897.31
2023-09-22T04:11:24.065Z,99881.41
2023-09-22T04:16:26.080Z,99891.31
2023-09-22T04:21:27.746Z,99889.94
2023-09-22T04:26:29.358Z,99879.78
2023-09-22T04:31:30.929Z,99882.94
2023-09-22T04:36:32.496Z,99894.41
2023-09-22T04:41:33.953Z,99896.88
2023-09-22T04:46:35.440Z,99897.56
2023-09-22T04:51:37.090Z,99894.66
2023-09-22T04:56:38.667Z,99918.72
2023-09-22T05:01:40.236Z,99927.22
2023-09-22T05:06:41.885Z,99933.81
2023-09-22T05:11:43.396Z,99908.22
2023-09-22T05:16:44.931Z,99902.22
2023-09-22T05:21:46.507Z,99897.81
2023-09-22T05:26:48.027Z,99918.06
2023-09-22T05:31:49.648Z,99918.59
2023-09-22T05:36:51.264Z,99922.16
2023-09-22T05:41:53.032Z,99938.00
2023-09-22T05:46:54.560Z,99928.75
2023-09-22T05:51:56.148Z,99947.53
2023-09-22T05:56:57.610Z,99935.88
2023-09-22T06:01:59.121Z,99949.03
2023-09-22T06:07:00.685Z,99943.38
2023-09-22T06:12:02.138Z,99946.66
2023-09-22T06:17:03.813Z,99971.91
2023-09-22T06:22:05.370Z,99967.56
2023-09-22T06:27:06.881Z,99968.56
2023-09-22T06:32:08.357Z,99981.16
2023-09-22T06:37:09.862Z,99992.34
2023-09-22T06:42:11.331Z,100031.94
2023-09-22T06:47:12.874Z,100050.63
2023-09-22T06:52:14.350Z,100046.63
2023-09-22T06:57:15.827Z,100072.66
2023-09-22T07:02:17.300Z,100089.59
2023-09-22T07:07:18.835Z,100088.78
2023-09-22T07:12:20.334Z,100078.41
2023-09-22T07:17:21.957Z,100072.81
2023-09-22T07:22:23.433Z,100079.31
2023-09-22T07:27:25.028Z,100065.09
2023-09-22T07:32:26.543Z,100051.13
2023-09-22T07:37:28.078Z,100053.72
2023-09-22T07:42:29.600Z,100059.09
2023-09-22T07:47:31.147Z,100065.69
2023-09-22T07:52:32.860Z,100087.13
2023-09-22T07:57:34.548Z,100091.50
2023-09-22T08:02:36.386Z,100108.88
2023-09-22T08:07:38.316Z,100104.97
2023-09-22T08:12:41.096Z,100124.38
2023-09-22T08:17:43.683Z,100129.81
2023-09-22T08:22:45.204Z,100119.53
2023-09-22T08:27:47.227Z,100135.59
2023-09-22T08:32:48.700Z,100135.13
2023-09-22T08:37:50.248Z,100137.13
2023-09-22T08:42:52.129Z,100135.97
2023-09-22T08:47:53.766Z,100145.88
2023-09-22T08:52:55.261Z,100141.59
2023-09-22T08:57:56.747Z,100134.44
2023-09-22T09:03:06.209Z,100135.41
2023-09-22T09:08:17.834Z,100159.50
2023-09-22T09:13:23.577Z,100169.47
2023-09-22T09:18:25.675Z,100185.19
2023-09-22T09:23:27.245Z,100183.28
2023-09-22T09:28:29.717Z,100176.84
2023-09-22T09:33:32.320Z,100171.63
2023-09-22T09:38:42.527Z,100178.03
2023-09-22T09:43:44.775Z,100182.63
2023-09-22T09:48:47.085Z,100165.72
2023-09-22T09:53:52.433Z,100174.16
2023-09-22T09:58:53.976Z,100170.84
2023-09-22T10:03:55.986Z,100181.31
2023-09-22T10:08:57.502Z,100175.47
2023-09-22T10:13:58.965Z,100187.22
2023-09-22T10:19:00.985Z,100189.47
2023-09-22T10:24:25.740Z,100206.63
2023-09-22T10:29:36.552Z,100216.31
2023-09-22T10:34:51.001Z,100206.47
2023-09-22T10:40:12.491Z,100207.22
2023-09-22T10:45:15.321Z,100190.00
2023-09-22T10:50:16.732Z,100191.63
2023-09-22T10:55:28.495Z,100202.38
2023-09-22T11:00:30.088Z,100208.59
2023-09-22T11:05:31.641Z,100214.06
2023-09-22T11:10:33.284Z,100214.59
2023-09-22T11:15:34.849Z,100222.78
2023-09-22T11:20:36.332Z,100209.44
2023-09-22T11:25:37.837Z,100218.09
2023-09-22T11:30:39.359Z,100222.47
2023-09-22T11:35:40.979Z,100230.75
2023-09-22T11:40:42.685Z,100251.75
2023-09-22T11:45:44.272Z,100266.59
2023-09-22T11:50:55.538Z,100272.97
2023-09-22T11:55:57.064Z,100264.38
2023-09-22T12:00:58.550Z,100259.84
2023-09-22T12:06:00.738Z,100253.69
2023-09-22T12:11:02.258Z,100266.28
2023-09-22T12:16:03.958Z,100272.44
2023-09-22T12:21:05.735Z,100275.94
2023-09-22T12:26:07.185Z,100280.97
2023-09-22T12:31:08.836Z,100285.66
2023-09-22T12:36:10.610Z,100278.03
2023-09-22T12:41:12.596Z,100294.91
2023-09-22T12:46:14.541Z,100286.09
2023-09-22T12:51:16.208Z,100283.19
2023-09-22T12:56:17.655Z,100279.34
2023-09-22T13:01:19.162Z,100289.94
2023-09-22T13:06:20.790Z,100290.88
2023-09-22T13:11:22.342Z,100279.94
2023-09-22T13:16:23.981Z,100272.66
2023-09-22T13:21:25.589Z,100275.56
2023-09-22T13:26:27.049Z,100270.72
2023-09-22T13:31:28.571Z,100268.13
2023-09-22T13:36:30.095Z,100270.25
2023-09-22T13:41:31.539Z,100261.19
2023-09-22T13:46:33.003Z,100270.78
2023-09-22T13:51:34.543Z,100261.66
2023-09-22T13:56:36.000Z,100266.38
2023-09-22T14:01:37.568Z,100269.50
2023-09-22T14:06:39.244Z,100273.75
2023-09-22T14:11:40.711Z,100278.66
2023-09-22T14:16:42.272Z,100274.63
2023-09-22T14:21:43.908Z,100265.41
2023-09-22T14:26:46.044Z,100259.69
2023-09-22T14:31:47.630Z,100264.56
2023-09-22T14:36:49.183Z,100263.91
2023-09-22T14:41:50.639Z,100262.63
2023-09-22T14:46:52.193Z,100260.22
2023-09-22T14:51:53.765Z,100265.84
2023-09-22T14:56:55.217Z,100271.59
2023-09-22T15:01:56.780Z,100280.97
2023-09-22T15:06:58.354Z,100292.56
2023-09-22T15:12:00.045Z,100310.00
2023-09-22T15:17:01.544Z,100316.44
2023-09-22T15:22:03.111Z,100328.47
2023-09-22T15:27:04.585Z,100338.94
2023-09-22T15:32:06.081Z,100344.84
2023-09-22T15:37:09.375Z,100358.16
2023-09-22T15:42:10.819Z,100344.56
2023-09-22T15:47:12.399Z,100343.91
2023-09-22T15:52:13.980Z,100357.06
2023-09-22T15:57:15.432Z,100358.31
2023-09-22T16:02:17.786Z,100352.53
2023-09-22T16:07:19.355Z,100366.03
2023-09-22T16:12:20.896Z,100358.09
2023-09-22T16:17:22.470Z,100355.91
2023-09-22T16:22:24.060Z,100356.34
2023-09-22T16:27:25.506Z,100359.97
2023-09-22T16:32:27.036Z,100373.22
2023-09-22T16:37:28.696Z,100369.84
2023-09-22T16:42:30.298Z,100377.28
2023-09-22T16:47:31.895Z,100388.78
2023-09-22T16:52:33.512Z,100396.16
2023-09-22T16:57:35.153Z,100396.59
2023-09-22T17:02:37.059Z,100404.25
2023-09-22T17:07:38.657Z,100409.63
2023-09-22T17:12:40.327Z,100404.66
2023-09-22T17:17:42.200Z,100410.13
2023-09-22T17:22:43.735Z,100422.50
2023-09-22T17:27:45.263Z,100426.34
2023-09-22T17:32:46.971Z,100422.47
2023-09-22T17:37:48.665Z,100423.25
2023-09-22T17:42:50.157Z,100427.22
2023-09-22T17:47:51.662Z,100422.28
2023-09-22T17:52:53.258Z,100425.69
2023-09-22T17:57:54.734Z,100432.81
2023-09-22T18:02:56.306Z,100429.53
2023-09-22T18:07:57.948Z,100428.94
2023-09-22T18:12:59.397Z,100428.91
2023-09-22T18:18:00.889Z,100425.88
2023-09-22T18:23:02.404Z,100427.97
2023-09-22T18:28:04.155Z,100438.97
2023-09-22T18:33:05.684Z,100439.44
2023-09-22T18:38:07.232Z,100441.00
2023-09-22T18:43:08.736Z,100444.03
2023-09-22T18:48:10.502Z,100454.91
2023-09-22T18:53:11.929Z,100455.63
2023-09-22T18:58:14.584Z,100457.06
2023-09-22T19:03:16.074Z,100458.84
2023-09-22T19:08:17.684Z,100468.75
2023-09-22T19:13:19.127Z,100478.41
2023-09-22T19:18:20.609Z,100478.91
2023-09-22T19:23:22.088Z,100478.50
2023-09-22T19:28:23.608Z,100482.81
2023-09-22T19:33:25.206Z,100486.50
2023-09-22T19:38:26.777Z,100486.97
2023-09-22T19:43:28.247Z,100488.03
2023-09-22T19:48:29.734Z,100490.34
2023-09-22T19:53:31.276Z,100489.69
2023-09-22T19:58:32.773Z,100478.06
2023-09-22T20:03:34.253Z,100482.69
2023-09-22T20:08:35.789Z,100478.38
2023-09-22T20:13:37.328Z,100477.28
2023-09-22T20:18:38.830Z,100470.97
2023-09-22T20:23:40.299Z,100467.50
2023-09-22T20:28:41.800Z,100478.72
2023-09-22T20:33:43.348Z,100485.81
2023-09-22T20:38:45.131Z,100482.94
2023-09-22T20:43:46.801Z,100483.66
2023-09-22T20:48:48.316Z,100480.75
2023-09-22T20:53:49.748Z,100486.78
2023-09-22T20:58:51.270Z,100499.72
2023-09-22T21:03:52.812Z,100504.94
2023-09-22T21:08:54.693Z,100510.00
2023-09-22T21:13:56.171Z,100507.06
2023-09-22T21:18:57.650Z,100512.69
2023-09-22T21:23:59.615Z,100509.88
2023-09-22T21:29:01.143Z,100516.59
2023-09-22T21:34:02.697Z,100514.72
2023-09-22T21:39:04.151Z,100521.97
2023-09-22T21:44:08.690Z,100513.94
2023-09-22T21:49:10.244Z,100520.78
2023-09-22T21:54:11.737Z,100519.13
2023-09-22T21:59:13.353Z,100515.63
2023-09-22T22:04:14.885Z,100517.97
2023-09-22T22:09:16.334Z,100517.63
2023-09-22T22:14:17.843Z,100520.97
2023-09-22T22:19:19.290Z,100515.22
2023-09-22T22:24:21.543Z,100513.34
2023-09-22T22:29:23.054Z,100515.50
2023-09-22T22:34:24.512Z,100520.25
2023-09-22T22:39:25.994Z,100528.28
2023-09-22T22:44:27.701Z,100527.66
2023-09-22T22:49:29.142Z,100529.59
2023-09-22T22:54:32.819Z,100526.69
2023-09-22T22:59:34.404Z,100529.13
2023-09-22T23:04:36.117Z,100521.56
2023-09-22T23:09:37.650Z,100519.78
2023-09-22T23:14:39.116Z,100525.44
2023-09-22T23:19:40.674Z,100524.03
2023-09-22T23:24:42.146Z,100527.50
2023-09-22T23:29:43.711Z,100519.63
2023-09-22T23:34:46.157Z,100521.50
2023-09-22T23:39:47.630Z,100524.28
2023-09-22T23:44:49.078Z,100530.47
2023-09-22T23:49:50.671Z,100526.56
2023-09-22T23:54:52.169Z,100533.72
2023-09-22T23:59:53.635Z,100542.66
